Overview Statistics Trail Chart Weather Telemetry Raw packets
 

This is the latest recevied weather packets stored in our database for station/object R1ZCU-14. If no packets are shown the sender has not sent any weather packets the latest 10 day(s).

<< 17 18 19 20 21 22 23 >>
Time Temp. Humidity Pressure Rain* Wind** Luminosity Snow
1788083271 16.11° C 58% 1007.5 hPa - - - -
1788082671 16.11° C 61% 1007.6 hPa - - - -
1788082070 16.11° C 63% 1007.8 hPa - - - -
1788081470 16.11° C 65% 1007.9 hPa - - - -
1788080869 16.67° C 66% 1007.9 hPa - - - -
1788080269 16.67° C 68% 1007.9 hPa - - - -
1788079668 16.67° C 67% 1007.9 hPa - - - -
1788079068 17.22° C 65% 1007.9 hPa - - - -
1788078467 17.22° C 64% 1007.9 hPa - - - -
1788077867 17.78° C 61% 1008 hPa - - - -
1788077266 18.89° C 55% 1007.8 hPa - - - -
1788076666 18.89° C 55% 1007.8 hPa - - - -
1788076065 18.33° C 57% 1007.8 hPa - - - -
1788075465 16.67° C 66% 1007.9 hPa - - - -
1788074864 16.11° C 69% 1008.1 hPa - - - -
1788074264 16.11° C 71% 1008.1 hPa - - - -
1788073664 15.56° C 73% 1008.1 hPa - - - -
1788073063 15.56° C 74% 1008.1 hPa - - - -
1788072462 15.56° C 73% 1008.2 hPa - - - -
1788071862 15.56° C 75% 1008.2 hPa - - - -
1788071261 16.67° C 71% 1008.3 hPa - - - -
1788070661 16.67° C 73% 1008.3 hPa - - - -
1788070060 16.67° C 77% 1008.4 hPa - - - -
1788069460 16.11° C 78% 1008.4 hPa - - - -
1788068859 16.11° C 79% 1008.4 hPa - - - -

* Rain since midnight (hover to see other rain measurements)
** Current wind speed in m/s (hover to see current wind gust speed)